createdAt,value
2018-10-07T00:02:27.756Z,15.90
2018-10-07T00:04:57.714Z,15.90
2018-10-07T00:07:27.329Z,15.90
2018-10-07T00:09:56.622Z,15.90
2018-10-07T00:12:25.926Z,15.90
2018-10-07T00:14:55.555Z,15.90
2018-10-07T00:20:11.197Z,15.90
2018-10-07T00:22:40.432Z,15.90
2018-10-07T00:25:09.775Z,16.00
2018-10-07T00:27:39.340Z,16.00
2018-10-07T00:30:08.786Z,16.00
2018-10-07T00:32:39.688Z,16.10
2018-10-07T00:35:12.163Z,16.10
2018-10-07T00:37:43.941Z,16.00
2018-10-07T00:40:14.301Z,16.00
2018-10-07T00:42:43.700Z,16.00
2018-10-07T00:45:13.083Z,16.10
2018-10-07T00:47:43.292Z,16.10
2018-10-07T00:50:17.298Z,16.10
2018-10-07T00:52:50.082Z,16.10
2018-10-07T00:55:20.195Z,16.10
2018-10-07T00:57:51.621Z,16.00
2018-10-07T01:00:22.662Z,15.90
2018-10-07T01:02:55.002Z,15.90
2018-10-07T01:05:24.544Z,15.90
2018-10-07T01:07:53.555Z,15.90
2018-10-07T01:10:23.474Z,15.90
2018-10-07T01:12:54.211Z,15.80
2018-10-07T01:15:25.965Z,15.70
2018-10-07T01:17:55.751Z,15.70
2018-10-07T01:20:25.253Z,15.60
2018-10-07T01:22:55.146Z,15.60
2018-10-07T01:25:39.011Z,15.60
2018-10-07T01:28:08.430Z,15.50
2018-10-07T01:30:43.442Z,15.50
2018-10-07T01:33:14.791Z,15.50
2018-10-07T01:35:46.481Z,15.50
2018-10-07T01:38:21.399Z,15.50
2018-10-07T01:40:52.465Z,15.50
2018-10-07T01:43:23.174Z,15.50
2018-10-07T01:45:55.669Z,15.50
2018-10-07T01:48:28.836Z,15.50
2018-10-07T01:50:58.067Z,15.50
2018-10-07T01:53:27.239Z,15.40
2018-10-07T01:55:56.293Z,15.40
2018-10-07T01:58:42.816Z,15.30
2018-10-07T02:01:18.260Z,15.30
2018-10-07T02:03:47.585Z,15.30
2018-10-07T02:06:18.376Z,15.20
2018-10-07T02:08:48.436Z,15.20
2018-10-07T02:11:17.749Z,15.20
2018-10-07T02:13:55.028Z,15.20
2018-10-07T02:16:24.680Z,15.20
2018-10-07T02:18:55.426Z,15.10
2018-10-07T02:21:25.076Z,15.10
2018-10-07T02:23:55.050Z,15.20
2018-10-07T02:26:24.350Z,15.30
2018-10-07T02:28:53.754Z,15.30
2018-10-07T02:31:24.244Z,15.30
2018-10-07T02:33:55.363Z,15.30
2018-10-07T02:36:25.127Z,15.30
2018-10-07T02:38:56.095Z,15.20
2018-10-07T02:41:34.278Z,15.20
2018-10-07T02:44:03.829Z,15.20
2018-10-07T02:46:34.927Z,15.30
2018-10-07T02:49:05.557Z,15.20
2018-10-07T02:51:36.211Z,15.40
2018-10-07T02:54:05.382Z,15.40
2018-10-07T02:56:36.756Z,15.30
2018-10-07T02:59:07.739Z,15.20
2018-10-07T03:01:38.255Z,15.20
2018-10-07T03:04:07.801Z,15.20
2018-10-07T03:06:42.898Z,15.10
2018-10-07T03:09:12.557Z,15.10
2018-10-07T03:11:41.789Z,15.00
2018-10-07T03:14:12.886Z,15.00
2018-10-07T03:16:43.072Z,15.00
2018-10-07T03:19:15.438Z,15.00
2018-10-07T03:21:47.987Z,15.00
2018-10-07T03:24:18.498Z,15.10
2018-10-07T03:26:50.250Z,15.10
2018-10-07T03:29:20.955Z,15.10
2018-10-07T03:31:50.204Z,15.10
2018-10-07T03:34:20.496Z,15.00
2018-10-07T03:36:49.870Z,14.90
2018-10-07T03:39:19.990Z,14.80
2018-10-07T03:41:49.740Z,14.70
2018-10-07T03:44:19.549Z,14.70
2018-10-07T03:46:50.318Z,14.70
2018-10-07T03:49:21.147Z,14.60
2018-10-07T03:51:50.707Z,14.60
2018-10-07T03:54:21.470Z,14.60
2018-10-07T03:59:43.864Z,14.50
2018-10-07T04:02:13.309Z,14.40
2018-10-07T04:04:42.837Z,14.30
2018-10-07T04:07:12.581Z,14.30
2018-10-07T04:09:44.635Z,14.20
2018-10-07T04:12:14.579Z,14.20
2018-10-07T04:14:43.822Z,14.20
2018-10-07T04:17:13.172Z,14.20
2018-10-07T04:19:43.164Z,14.10
2018-10-07T04:22:13.954Z,14.10
2018-10-07T04:24:44.177Z,14.10
2018-10-07T04:27:15.909Z,14.00
2018-10-07T04:29:45.998Z,14.00
2018-10-07T04:32:15.221Z,14.00
2018-10-07T04:34:45.139Z,14.00
2018-10-07T04:37:15.428Z,14.00
2018-10-07T04:39:44.689Z,13.90
2018-10-07T04:42:14.367Z,13.90
2018-10-07T04:44:45.587Z,13.80
2018-10-07T04:47:14.628Z,13.80
2018-10-07T04:49:44.007Z,13.70
2018-10-07T04:52:14.329Z,13.70
2018-10-07T04:54:43.753Z,13.60
2018-10-07T04:57:13.107Z,13.60
2018-10-07T04:59:45.042Z,13.70
2018-10-07T05:02:14.604Z,13.70
2018-10-07T05:04:44.318Z,13.70
2018-10-07T05:07:13.951Z,13.80
2018-10-07T05:09:43.715Z,13.90
2018-10-07T05:12:13.861Z,13.90
2018-10-07T05:14:45.942Z,13.90
2018-10-07T05:17:18.905Z,13.90
2018-10-07T05:19:50.206Z,14.00
2018-10-07T05:22:30.357Z,14.00
2018-10-07T05:25:01.261Z,14.10
2018-10-07T05:27:34.974Z,14.20
2018-10-07T05:30:04.292Z,14.20
2018-10-07T05:32:34.868Z,14.20
2018-10-07T05:35:04.256Z,14.20
2018-10-07T05:37:34.857Z,14.20
2018-10-07T05:40:09.527Z,14.30
2018-10-07T05:42:39.397Z,14.40
2018-10-07T05:45:14.720Z,14.50
2018-10-07T05:47:48.045Z,14.50
2018-10-07T05:50:21.232Z,14.30
2018-10-07T05:52:54.321Z,14.20
2018-10-07T05:55:35.598Z,14.10
2018-10-07T05:58:22.721Z,14.20
2018-10-07T06:01:03.174Z,14.10
2018-10-07T06:03:47.173Z,14.10
2018-10-07T06:06:39.147Z,14.20
2018-10-07T06:09:19.609Z,14.30
2018-10-07T06:11:57.248Z,14.30
2018-10-07T06:14:51.209Z,14.30
2018-10-07T06:17:25.299Z,14.30
2018-10-07T06:20:07.807Z,14.40
2018-10-07T06:22:49.522Z,14.50
2018-10-07T06:25:23.009Z,14.60
2018-10-07T06:28:00.003Z,14.60
2018-10-07T06:30:37.085Z,14.60
2018-10-07T06:33:10.350Z,14.60
2018-10-07T06:35:44.662Z,14.90
2018-10-07T06:38:15.386Z,15.60
2018-10-07T06:40:48.279Z,16.40
2018-10-07T06:43:22.698Z,17.20
2018-10-07T06:46:07.463Z,17.50
2018-10-07T06:48:44.808Z,18.00
2018-10-07T06:51:23.702Z,18.60
2018-10-07T06:54:00.353Z,19.20
2018-10-07T06:56:36.548Z,19.70
2018-10-07T06:59:23.444Z,20.20
2018-10-07T07:02:09.152Z,20.70
2018-10-07T07:04:52.713Z,21.40
2018-10-07T07:07:25.216Z,22.10
2018-10-07T07:10:00.887Z,22.50
2018-10-07T07:12:37.852Z,22.40
2018-10-07T07:15:25.372Z,22.40
2018-10-07T07:18:08.141Z,21.80
2018-10-07T07:20:39.863Z,20.90
2018-10-07T07:23:16.316Z,20.20
2018-10-07T07:25:49.688Z,19.30
2018-10-07T07:28:21.562Z,19.10
2018-10-07T07:30:57.304Z,19.30
2018-10-07T07:33:29.377Z,19.90
2018-10-07T07:36:32.373Z,20.30
2018-10-07T07:39:07.919Z,20.80
2018-10-07T07:41:41.236Z,21.60
2018-10-07T07:44:22.590Z,22.30
2018-10-07T07:46:53.152Z,23.10
2018-10-07T08:03:10.146Z,21.90
2018-10-07T08:05:55.940Z,20.50
2018-10-07T08:08:33.723Z,20.00
2018-10-07T08:11:07.491Z,19.70
2018-10-07T08:13:43.603Z,19.50
2018-10-07T08:16:16.698Z,19.70
2018-10-07T08:18:46.998Z,19.80
2018-10-07T08:21:27.153Z,19.80
2018-10-07T08:27:02.008Z,19.60
2018-10-07T08:29:36.601Z,19.60
2018-10-07T08:32:13.308Z,19.90
2018-10-07T08:34:46.608Z,20.10
2018-10-07T08:37:18.001Z,21.10
2018-10-07T08:39:51.551Z,22.20
2018-10-07T08:42:23.264Z,23.40
2018-10-07T08:44:54.771Z,24.20
2018-10-07T08:47:26.459Z,25.00
2018-10-07T08:52:45.667Z,26.30
2018-10-07T08:55:31.179Z,26.60
2018-10-07T08:58:08.096Z,26.70
2018-10-07T09:00:46.788Z,26.80
2018-10-07T09:09:02.535Z,29.10
2018-10-07T09:11:42.841Z,29.20
2018-10-07T09:14:15.644Z,29.80
2018-10-07T09:16:48.256Z,30.30
2018-10-07T09:19:26.020Z,30.60
2018-10-07T09:21:55.781Z,30.80
2018-10-07T09:24:32.931Z,30.00
2018-10-07T09:27:12.490Z,30.00
2018-10-07T09:29:46.759Z,30.30
2018-10-07T09:32:28.237Z,29.60
2018-10-07T09:35:06.996Z,29.10
2018-10-07T09:37:40.925Z,29.80
2018-10-07T09:40:17.390Z,30.30
2018-10-07T09:42:47.768Z,30.70
2018-10-07T09:45:16.954Z,31.00
2018-10-07T09:47:48.357Z,31.30
2018-10-07T09:50:18.230Z,31.70
2018-10-07T09:52:48.804Z,31.80
2018-10-07T09:55:24.352Z,31.70
2018-10-07T09:58:05.180Z,31.40
2018-10-07T10:00:43.680Z,31.70
2018-10-07T10:03:15.738Z,31.50
2018-10-07T10:09:02.035Z,31.80
2018-10-07T10:11:37.534Z,31.70
2018-10-07T10:14:13.095Z,31.90
2018-10-07T10:17:11.101Z,32.20
2018-10-07T10:23:02.592Z,32.60
2018-10-07T10:28:42.659Z,32.30
2018-10-07T10:31:21.844Z,32.70
2018-10-07T10:34:17.301Z,33.00
2018-10-07T10:37:09.311Z,32.80
2018-10-07T11:12:07.312Z,34.30
2018-10-07T11:16:10.269Z,33.80
2018-10-07T11:20:58.877Z,33.60
2018-10-07T11:23:42.173Z,33.40
2018-10-07T11:26:59.056Z,33.60
2018-10-07T11:32:00.371Z,34.10
2018-10-07T11:35:16.178Z,34.30
2018-10-07T11:37:59.012Z,34.10
2018-10-07T11:41:00.215Z,34.50
2018-10-07T11:49:17.984Z,34.50
2018-10-07T11:52:21.800Z,34.30
2018-10-07T11:55:00.759Z,34.60
2018-10-07T11:57:32.282Z,34.40
2018-10-07T12:00:20.766Z,34.60
2018-10-07T12:03:00.158Z,34.60
2018-10-07T12:08:11.041Z,34.60
2018-10-07T12:10:42.043Z,34.70
2018-10-07T12:13:12.757Z,34.90
2018-10-07T12:15:45.801Z,35.10
2018-10-07T12:18:19.663Z,35.10
2018-10-07T12:20:53.231Z,34.80
2018-10-07T12:23:24.383Z,34.80
2018-10-07T12:25:55.515Z,34.90
2018-10-07T12:28:28.028Z,34.90
2018-10-07T12:31:17.045Z,34.80
2018-10-07T12:36:53.867Z,32.00
2018-10-07T12:39:30.411Z,30.80
2018-10-07T12:42:05.972Z,29.60
2018-10-07T12:44:49.614Z,28.50
2018-10-07T12:47:27.994Z,27.60
2018-10-07T12:49:58.774Z,28.10
2018-10-07T12:52:41.880Z,30.00
2018-10-07T12:55:14.641Z,31.50
2018-10-07T12:58:02.994Z,32.90
2018-10-07T13:00:35.881Z,33.80
2018-10-07T13:03:08.388Z,34.40
2018-10-07T13:05:47.314Z,34.60
2018-10-07T13:08:18.926Z,34.40
2018-10-07T13:10:56.643Z,34.90
2018-10-07T13:13:27.779Z,35.20
2018-10-07T13:16:04.080Z,34.80
2018-10-07T13:18:40.638Z,34.90
2018-10-07T13:21:20.757Z,34.90
2018-10-07T13:23:53.669Z,34.40
2018-10-07T13:26:24.553Z,34.60
2018-10-07T13:28:55.602Z,34.60
2018-10-07T13:31:30.142Z,34.70
2018-10-07T13:34:03.113Z,34.70
2018-10-07T13:36:37.419Z,34.40
2018-10-07T13:39:15.107Z,34.10
2018-10-07T13:41:53.962Z,33.90
2018-10-07T13:44:26.023Z,34.20
2018-10-07T13:46:56.346Z,33.60
2018-10-07T13:49:26.987Z,33.30
2018-10-07T13:51:59.459Z,33.50
2018-10-07T13:54:32.762Z,33.50
2018-10-07T13:57:29.774Z,33.10
2018-10-07T14:00:04.411Z,32.80
2018-10-07T14:02:36.078Z,32.80
2018-10-07T14:05:06.613Z,32.70
2018-10-07T14:10:11.994Z,31.60
2018-10-07T14:12:44.479Z,31.30
2018-10-07T14:15:18.162Z,30.80
2018-10-07T14:21:05.459Z,30.10
2018-10-07T14:26:36.027Z,27.10
2018-10-07T14:30:20.413Z,25.90
2018-10-07T14:32:55.313Z,25.00
2018-10-07T14:35:39.713Z,24.20
2018-10-07T14:38:18.230Z,23.80
2018-10-07T14:40:58.140Z,23.60
2018-10-07T14:43:52.731Z,23.30
2018-10-07T14:46:48.643Z,23.20
2018-10-07T14:49:22.749Z,23.00
2018-10-07T14:51:54.594Z,22.90
2018-10-07T14:54:45.826Z,22.90
2018-10-07T14:57:17.535Z,22.80
2018-10-07T14:59:50.768Z,22.70
2018-10-07T15:02:33.213Z,22.70
2018-10-07T15:05:10.615Z,22.60
2018-10-07T15:07:50.007Z,22.50
2018-10-07T15:10:33.943Z,22.50
2018-10-07T15:13:10.525Z,22.50
2018-10-07T15:16:02.248Z,22.40
2018-10-07T15:18:50.728Z,22.30
2018-10-07T15:21:30.892Z,22.30
2018-10-07T15:24:03.617Z,22.30
2018-10-07T15:26:35.590Z,22.20
2018-10-07T15:29:15.470Z,22.10
2018-10-07T15:59:31.444Z,21.30
2018-10-07T16:02:18.840Z,21.30
2018-10-07T16:04:56.331Z,21.30
2018-10-07T16:07:45.093Z,21.20
2018-10-07T16:10:24.249Z,21.10
2018-10-07T16:13:07.820Z,21.00
2018-10-07T16:15:49.785Z,21.00
2018-10-07T18:38:28.058Z,20.80
2018-10-07T18:40:57.948Z,18.10
2018-10-07T18:43:58.486Z,18.00
2018-10-07T18:46:38.819Z,17.90
2018-10-07T18:49:09.750Z,17.80
2018-10-07T18:51:39.295Z,17.80
2018-10-07T18:54:10.578Z,17.80
2018-10-07T18:56:46.552Z,17.80
